createdAt,value
2023-06-29T00:01:08.851Z,99.65
2023-06-29T00:03:56.532Z,99.34
2023-06-29T00:06:24.226Z,99.24
2023-06-29T00:08:51.846Z,99.66
2023-06-29T00:11:19.552Z,99.40
2023-06-29T00:13:47.165Z,99.23
2023-06-29T00:16:16.126Z,99.01
2023-06-29T00:18:43.737Z,98.99
2023-06-29T00:21:11.586Z,98.93
2023-06-29T00:23:39.420Z,98.77
2023-06-29T00:26:07.026Z,98.91
2023-06-29T00:28:34.746Z,99.10
2023-06-29T00:31:02.482Z,99.02
2023-06-29T00:33:30.132Z,99.17
2023-06-29T00:35:57.784Z,99.23
2023-06-29T00:38:25.435Z,99.17
2023-06-29T00:40:53.134Z,99.10
2023-06-29T00:43:20.842Z,99.09
2023-06-29T00:45:48.468Z,98.98
2023-06-29T00:48:16.378Z,98.98
2023-06-29T00:50:44.024Z,98.73
2023-06-29T00:53:11.765Z,98.62
2023-06-29T00:55:40.250Z,98.67
2023-06-29T00:58:08.336Z,98.62
2023-06-29T01:00:36.159Z,98.79
2023-06-29T01:03:04.114Z,98.64
2023-06-29T01:05:31.904Z,98.62
2023-06-29T01:08:06.515Z,98.80
2023-06-29T01:10:35.956Z,98.79
2023-06-29T01:13:05.497Z,98.86
2023-06-29T01:15:34.944Z,98.81
2023-06-29T01:18:03.360Z,98.92
2023-06-29T01:20:32.816Z,98.97
2023-06-29T01:23:08.360Z,99.00
2023-06-29T01:25:36.260Z,98.99
2023-06-29T01:28:08.647Z,99.06
2023-06-29T01:30:39.099Z,99.27
2023-06-29T01:33:09.407Z,99.23
2023-06-29T01:35:37.095Z,99.35
2023-06-29T01:38:11.661Z,99.41
2023-06-29T01:40:42.097Z,99.24
2023-06-29T01:43:09.937Z,99.37
2023-06-29T01:45:38.029Z,99.17
2023-06-29T01:48:06.892Z,99.34
2023-06-29T01:50:34.602Z,99.55
2023-06-29T01:53:02.430Z,99.69
2023-06-29T01:55:30.179Z,99.48
2023-06-29T01:57:57.854Z,99.63
2023-06-29T02:00:25.604Z,99.59
2023-06-29T02:02:53.861Z,99.54
2023-06-29T02:05:22.001Z,99.50
2023-06-29T02:07:49.582Z,99.72
2023-06-29T02:10:17.327Z,99.51
2023-06-29T02:12:44.920Z,99.58
2023-06-29T02:15:12.593Z,99.73
2023-06-29T02:17:40.282Z,99.71
2023-06-29T02:20:11.735Z,99.62
2023-06-29T02:22:39.355Z,99.60
2023-06-29T02:25:11.644Z,99.61
2023-06-29T02:27:39.499Z,99.65
2023-06-29T02:30:07.718Z,99.81
2023-06-29T02:32:35.396Z,99.84
2023-06-29T02:35:03.135Z,99.56
2023-06-29T02:37:30.762Z,99.65
2023-06-29T02:39:58.394Z,99.58
2023-06-29T02:42:26.010Z,99.85
2023-06-29T02:44:53.624Z,99.77
2023-06-29T02:47:21.394Z,99.80
2023-06-29T02:49:48.999Z,99.77
2023-06-29T02:52:16.630Z,99.58
2023-06-29T02:54:44.236Z,99.50
2023-06-29T02:57:11.813Z,99.53
2023-06-29T02:59:39.735Z,99.41
2023-06-29T03:02:07.518Z,99.54
2023-06-29T03:04:35.285Z,99.30
2023-06-29T03:07:02.907Z,99.45
2023-06-29T03:09:30.538Z,99.40
2023-06-29T03:11:58.174Z,99.35
2023-06-29T03:14:25.754Z,99.23
2023-06-29T03:16:53.449Z,99.32
2023-06-29T03:19:21.212Z,99.29
2023-06-29T03:21:48.812Z,99.16
2023-06-29T03:24:16.541Z,99.10
2023-06-29T03:26:44.162Z,99.05
2023-06-29T03:29:11.780Z,98.99
2023-06-29T03:31:39.422Z,98.64
2023-06-29T03:34:07.048Z,98.60
2023-06-29T03:36:34.684Z,98.57
2023-06-29T03:39:02.313Z,98.31
2023-06-29T03:41:29.978Z,98.32
2023-06-29T03:43:57.634Z,98.30
2023-06-29T03:46:25.448Z,98.35
2023-06-29T03:48:53.269Z,98.20
2023-06-29T03:51:21.064Z,98.09
2023-06-29T03:53:48.657Z,98.13
2023-06-29T03:56:16.345Z,97.93
2023-06-29T03:58:43.970Z,97.94
2023-06-29T04:01:11.562Z,97.76
2023-06-29T04:03:39.202Z,97.58
2023-06-29T04:06:06.835Z,97.51
2023-06-29T04:08:34.750Z,97.31
2023-06-29T04:11:02.343Z,97.15
2023-06-29T04:13:29.916Z,97.00
2023-06-29T04:15:57.537Z,96.85
2023-06-29T04:18:25.168Z,96.63
2023-06-29T04:20:53.893Z,96.50
2023-06-29T04:23:21.568Z,96.20
2023-06-29T04:25:49.164Z,96.25
2023-06-29T04:28:16.787Z,96.21
2023-06-29T04:30:44.720Z,95.83
2023-06-29T04:33:12.396Z,95.28
2023-06-29T04:35:44.867Z,94.82
2023-06-29T04:38:12.970Z,94.79
2023-06-29T04:40:40.981Z,94.71
2023-06-29T04:43:08.639Z,94.54
2023-06-29T04:45:38.258Z,94.43
2023-06-29T04:48:06.115Z,94.38
2023-06-29T04:50:33.763Z,94.43
2023-06-29T04:53:01.919Z,93.98
2023-06-29T04:55:29.531Z,93.15
2023-06-29T04:57:57.175Z,92.64
2023-06-29T05:00:24.818Z,91.94
2023-06-29T05:02:52.558Z,91.69
2023-06-29T05:05:20.342Z,91.75
2023-06-29T05:07:48.400Z,90.64
2023-06-29T05:10:16.075Z,90.17
2023-06-29T05:12:43.710Z,89.70
2023-06-29T05:15:11.554Z,89.82
2023-06-29T05:17:39.203Z,90.08
2023-06-29T05:20:07.439Z,90.02
2023-06-29T05:22:35.158Z,89.11
2023-06-29T05:25:03.298Z,89.14
2023-06-29T05:27:31.088Z,88.53
2023-06-29T05:29:58.676Z,88.06
2023-06-29T05:32:26.351Z,87.37
2023-06-29T05:34:53.971Z,87.18
2023-06-29T05:37:21.984Z,86.94
2023-06-29T05:39:49.593Z,85.36
2023-06-29T05:42:17.267Z,85.15
2023-06-29T05:44:45.051Z,84.63
2023-06-29T05:47:12.778Z,84.22
2023-06-29T05:49:40.448Z,83.47
2023-06-29T05:52:08.322Z,83.53
2023-06-29T05:54:36.015Z,82.93
2023-06-29T05:57:04.284Z,83.07
2023-06-29T05:59:32.050Z,82.84
2023-06-29T06:01:59.739Z,82.46
2023-06-29T06:04:27.368Z,82.24
2023-06-29T06:06:55.029Z,81.39
2023-06-29T06:09:22.773Z,81.50
2023-06-29T06:11:50.392Z,81.94
2023-06-29T06:14:18.019Z,82.00
2023-06-29T06:16:45.682Z,81.89
2023-06-29T06:19:13.329Z,81.54
2023-06-29T06:21:40.922Z,81.82
2023-06-29T06:24:08.630Z,81.44
2023-06-29T06:26:36.315Z,80.46
2023-06-29T06:29:03.967Z,80.04
2023-06-29T06:31:33.984Z,80.70
2023-06-29T06:34:02.757Z,79.31
2023-06-29T06:36:30.647Z,78.67
2023-06-29T06:38:58.269Z,78.70
2023-06-29T06:41:26.073Z,78.13
2023-06-29T06:43:53.790Z,78.10
2023-06-29T06:46:24.660Z,77.94
2023-06-29T06:48:54.930Z,77.10
2023-06-29T06:51:22.730Z,77.36
2023-06-29T06:53:50.384Z,76.70
2023-06-29T06:56:18.224Z,75.48
2023-06-29T06:58:45.909Z,75.30
2023-06-29T07:01:13.612Z,74.66
2023-06-29T07:03:41.504Z,74.15
2023-06-29T07:06:09.208Z,72.41
2023-06-29T07:08:36.900Z,72.98
2023-06-29T07:11:04.701Z,72.31
2023-06-29T07:13:32.368Z,69.41
2023-06-29T07:16:00.061Z,70.04
2023-06-29T07:18:30.571Z,69.56
2023-06-29T07:25:59.436Z,68.54
2023-06-29T07:28:27.116Z,68.07
2023-06-29T07:30:54.866Z,67.86
2023-06-29T07:33:22.483Z,67.86
2023-06-29T07:35:50.165Z,69.21
2023-06-29T07:38:17.777Z,69.16
2023-06-29T07:40:47.881Z,69.70
2023-06-29T07:43:17.264Z,69.44
2023-06-29T07:45:45.027Z,69.62
2023-06-29T07:48:13.171Z,70.47
2023-06-29T07:50:40.998Z,71.03
2023-06-29T07:53:08.789Z,71.69
2023-06-29T07:55:36.462Z,71.95
2023-06-29T08:00:34.591Z,72.72
2023-06-29T08:03:02.470Z,72.48
2023-06-29T08:08:01.317Z,71.94
2023-06-29T08:10:29.129Z,71.20
2023-06-29T08:12:56.796Z,71.08
2023-06-29T08:15:24.405Z,70.33
2023-06-29T08:17:52.015Z,69.12
2023-06-29T08:20:19.710Z,69.56
2023-06-29T08:22:47.344Z,68.14
2023-06-29T08:25:15.275Z,68.54
2023-06-29T08:27:43.228Z,68.40
2023-06-29T08:30:11.629Z,68.23
2023-06-29T08:32:39.786Z,68.96
2023-06-29T08:35:07.812Z,69.92
2023-06-29T08:37:35.528Z,70.81
2023-06-29T08:40:03.723Z,71.33
2023-06-29T08:42:31.582Z,71.76
2023-06-29T08:44:59.269Z,71.11
2023-06-29T08:47:29.352Z,71.96
2023-06-29T08:49:58.477Z,71.75
2023-06-29T08:52:30.648Z,70.86
2023-06-29T08:54:58.871Z,70.36
2023-06-29T08:57:26.785Z,71.32
2023-06-29T08:59:54.949Z,72.11
2023-06-29T09:02:23.163Z,73.08
2023-06-29T09:04:51.656Z,73.43
2023-06-29T09:07:19.398Z,72.94
2023-06-29T09:09:47.043Z,72.52
2023-06-29T09:12:17.668Z,72.05
2023-06-29T09:14:47.821Z,70.66
2023-06-29T09:17:16.931Z,70.03
2023-06-29T09:19:57.064Z,68.66
2023-06-29T09:22:27.958Z,67.22
2023-06-29T09:25:05.280Z,65.61
2023-06-29T09:27:38.019Z,64.69
2023-06-29T09:30:06.671Z,64.01
2023-06-29T09:32:38.515Z,62.98
2023-06-29T09:35:07.815Z,62.80
2023-06-29T09:37:36.294Z,61.93
2023-06-29T09:40:05.791Z,62.23
2023-06-29T09:42:35.905Z,62.80
2023-06-29T09:45:04.414Z,61.39
2023-06-29T09:50:04.079Z,59.26
2023-06-29T09:52:45.388Z,57.48
2023-06-29T09:55:16.830Z,55.25
2023-06-29T09:57:46.267Z,55.50
2023-06-29T10:00:14.841Z,53.97
2023-06-29T10:02:43.670Z,54.14
2023-06-29T10:05:12.179Z,54.42
2023-06-29T10:07:42.846Z,51.48
2023-06-29T10:10:16.082Z,49.51
2023-06-29T10:12:44.449Z,47.58
2023-06-29T10:15:15.052Z,43.93
2023-06-29T10:18:10.350Z,44.77
2023-06-29T10:20:41.052Z,40.75
2023-06-29T10:23:11.228Z,39.14
2023-06-29T10:25:44.345Z,39.19
2023-06-29T10:28:14.112Z,37.90
2023-06-29T10:30:50.100Z,35.97
2023-06-29T10:33:23.095Z,35.93
2023-06-29T10:35:58.924Z,36.69
2023-06-29T10:38:34.655Z,33.68
2023-06-29T10:41:06.655Z,32.92
2023-06-29T10:43:56.803Z,31.84
2023-06-29T10:46:50.388Z,29.57
2023-06-29T10:49:25.127Z,28.53
2023-06-29T10:51:55.384Z,30.05
2023-06-29T10:54:24.881Z,29.90
2023-06-29T10:56:58.238Z,29.87
2023-06-29T10:59:27.354Z,32.29
2023-06-29T11:01:55.676Z,33.41
2023-06-29T11:04:23.679Z,32.56
2023-06-29T11:06:52.653Z,32.01
2023-06-29T11:09:21.689Z,29.51
2023-06-29T11:11:50.797Z,28.49
2023-06-29T11:14:19.333Z,26.72
2023-06-29T11:16:47.426Z,28.55
2023-06-29T11:19:15.777Z,28.28
2023-06-29T11:21:44.213Z,30.15
2023-06-29T11:24:12.587Z,29.40
2023-06-29T11:26:41.403Z,29.69
2023-06-29T11:29:09.793Z,29.75
2023-06-29T11:31:39.054Z,32.17
2023-06-29T11:34:13.078Z,33.99
2023-06-29T11:36:40.785Z,33.14
2023-06-29T11:39:11.576Z,30.71
2023-06-29T11:41:41.971Z,30.70
2023-06-29T11:44:12.343Z,31.91
2023-06-29T11:46:43.858Z,31.36
2023-06-29T11:49:12.372Z,29.82
2023-06-29T11:51:40.945Z,29.91
2023-06-29T11:54:09.618Z,29.94
2023-06-29T11:56:42.633Z,31.05
2023-06-29T11:59:15.502Z,29.61
2023-06-29T12:01:45.211Z,27.64
2023-06-29T12:04:15.437Z,28.33
2023-06-29T12:06:55.897Z,27.21
2023-06-29T12:09:31.675Z,26.26
2023-06-29T12:12:01.959Z,24.36
2023-06-29T12:14:35.055Z,24.22
2023-06-29T12:19:42.579Z,25.02
2023-06-29T12:22:16.257Z,23.15
2023-06-29T12:24:51.963Z,23.36
2023-06-29T12:27:21.132Z,23.71
2023-06-29T12:29:49.832Z,25.77
2023-06-29T12:32:18.972Z,26.92
2023-06-29T12:34:50.386Z,27.34
2023-06-29T12:37:19.582Z,27.09
2023-06-29T12:39:48.666Z,26.26
2023-06-29T12:42:18.008Z,26.58
2023-06-29T12:44:46.115Z,24.92
2023-06-29T12:47:14.513Z,24.57
2023-06-29T12:49:42.384Z,22.93
2023-06-29T12:52:10.625Z,23.01
2023-06-29T12:54:39.164Z,25.47
2023-06-29T12:57:08.769Z,27.42
2023-06-29T12:59:37.395Z,28.17
2023-06-29T13:02:06.070Z,25.93
2023-06-29T13:04:37.994Z,24.77
2023-06-29T13:07:07.026Z,21.18
2023-06-29T13:09:35.150Z,20.53
2023-06-29T13:12:03.980Z,19.59
2023-06-29T13:14:32.054Z,18.63
2023-06-29T13:17:00.082Z,18.58
2023-06-29T13:19:28.565Z,17.72
2023-06-29T13:21:56.228Z,17.82
2023-06-29T13:24:24.620Z,18.37
2023-06-29T13:26:52.211Z,19.01
2023-06-29T13:29:22.651Z,18.63
2023-06-29T13:31:50.620Z,17.53
2023-06-29T13:34:18.713Z,17.63
2023-06-29T13:36:46.550Z,17.58
2023-06-29T13:39:14.585Z,18.90
2023-06-29T13:41:43.672Z,19.37
2023-06-29T13:44:13.140Z,20.41
2023-06-29T13:46:41.953Z,22.32
2023-06-29T13:49:09.821Z,22.64
2023-06-29T13:51:37.566Z,21.89
2023-06-29T13:54:06.830Z,20.65
2023-06-29T13:56:36.164Z,18.37
2023-06-29T13:59:10.621Z,17.98
2023-06-29T14:01:40.608Z,17.24
2023-06-29T14:04:10.892Z,17.20
2023-06-29T14:06:43.010Z,16.34
2023-06-29T14:09:14.296Z,16.47
2023-06-29T14:11:42.329Z,17.25
2023-06-29T14:14:10.602Z,19.07
2023-06-29T14:16:38.586Z,19.74
2023-06-29T14:19:06.219Z,19.48
2023-06-29T14:21:33.882Z,18.49
2023-06-29T14:24:01.534Z,18.08
2023-06-29T14:26:29.169Z,17.62
2023-06-29T14:28:56.841Z,17.14
2023-06-29T14:31:24.650Z,17.71
2023-06-29T14:33:52.876Z,18.18
2023-06-29T14:36:21.292Z,18.92
2023-06-29T14:38:50.520Z,21.09
2023-06-29T14:41:19.399Z,20.98
2023-06-29T14:43:47.442Z,19.58
2023-06-29T14:46:15.274Z,18.82
2023-06-29T14:48:43.861Z,17.63
2023-06-29T14:51:11.981Z,17.09
2023-06-29T14:53:40.006Z,16.92
2023-06-29T14:56:08.979Z,17.92
2023-06-29T14:58:37.982Z,19.65
2023-06-29T15:01:06.475Z,20.22
2023-06-29T15:03:34.786Z,18.59
2023-06-29T15:06:02.581Z,17.39
2023-06-29T15:08:30.579Z,16.94
2023-06-29T15:10:58.517Z,16.31
2023-06-29T15:13:26.339Z,17.31
2023-06-29T15:15:57.070Z,19.70
2023-06-29T15:18:24.928Z,21.04
2023-06-29T15:20:52.697Z,22.80
2023-06-29T15:23:20.841Z,22.53
2023-06-29T15:25:49.871Z,21.26
2023-06-29T15:28:18.732Z,19.26
2023-06-29T15:30:53.409Z,18.78
2023-06-29T15:33:22.900Z,18.34
2023-06-29T15:35:51.342Z,17.04
2023-06-29T15:38:20.345Z,16.95
2023-06-29T15:40:50.950Z,16.80
2023-06-29T15:43:19.338Z,16.93
2023-06-29T15:45:48.149Z,16.89
2023-06-29T15:48:16.904Z,16.46
2023-06-29T15:50:46.014Z,16.87
2023-06-29T15:53:14.606Z,17.58
2023-06-29T15:55:43.538Z,17.97
2023-06-29T15:58:11.977Z,17.38
2023-06-29T16:00:40.206Z,17.17
2023-06-29T16:03:08.284Z,17.16
2023-06-29T16:05:36.789Z,17.63
2023-06-29T16:08:05.168Z,17.83
2023-06-29T16:10:33.039Z,17.92
2023-06-29T16:13:00.951Z,17.62
2023-06-29T16:15:30.466Z,18.01
2023-06-29T16:17:59.664Z,19.24
2023-06-29T16:20:28.288Z,20.74
2023-06-29T16:22:57.048Z,21.38
2023-06-29T16:25:25.249Z,21.32
2023-06-29T16:27:54.315Z,20.36
2023-06-29T16:30:23.123Z,20.11
2023-06-29T16:32:51.582Z,20.46
2023-06-29T16:35:19.464Z,19.92
2023-06-29T16:37:47.732Z,20.14
2023-06-29T16:40:15.789Z,21.58
2023-06-29T16:42:44.005Z,21.83
2023-06-29T16:45:12.843Z,21.88
2023-06-29T16:47:40.618Z,21.78
2023-06-29T16:50:08.912Z,21.29
2023-06-29T16:52:36.875Z,21.19
2023-06-29T16:55:05.316Z,22.35
2023-06-29T16:57:33.135Z,22.77
2023-06-29T17:00:00.909Z,23.41
2023-06-29T17:02:28.921Z,24.29
2023-06-29T17:04:57.046Z,24.61
2023-06-29T17:07:25.060Z,23.84
2023-06-29T17:09:53.163Z,23.74
2023-06-29T17:12:20.970Z,23.22
2023-06-29T17:14:48.920Z,24.78
2023-06-29T17:17:17.354Z,25.82
2023-06-29T17:19:45.612Z,25.79
2023-06-29T17:22:13.896Z,25.57
2023-06-29T17:24:42.176Z,26.23
2023-06-29T17:27:10.783Z,27.31
2023-06-29T17:29:38.745Z,28.97
2023-06-29T17:32:07.153Z,30.44
2023-06-29T17:34:34.942Z,31.93
2023-06-29T17:37:02.581Z,33.51
2023-06-29T17:39:30.290Z,34.83
2023-06-29T17:42:00.997Z,34.73
2023-06-29T17:44:28.665Z,35.57
2023-06-29T17:46:58.725Z,36.45
2023-06-29T17:49:26.394Z,37.03
2023-06-29T17:51:54.072Z,37.56
2023-06-29T17:54:22.015Z,38.27
2023-06-29T17:56:49.615Z,38.87
2023-06-29T17:59:17.216Z,39.55
2023-06-29T18:01:44.911Z,39.80
2023-06-29T18:04:12.866Z,40.46
2023-06-29T18:06:40.710Z,40.92
2023-06-29T18:09:08.326Z,41.69
2023-06-29T18:11:35.931Z,42.22
2023-06-29T18:14:03.569Z,42.36
2023-06-29T18:16:31.375Z,42.79
2023-06-29T18:18:59.125Z,43.77
2023-06-29T18:21:27.098Z,43.85
2023-06-29T18:23:54.931Z,44.74
2023-06-29T18:26:22.772Z,44.76
2023-06-29T18:28:50.662Z,45.07
2023-06-29T18:31:18.653Z,45.74
2023-06-29T18:33:46.578Z,46.22
2023-06-29T18:36:14.652Z,47.19
2023-06-29T18:38:42.376Z,47.65
2023-06-29T18:41:32.142Z,47.81
2023-06-29T18:44:01.801Z,48.70
2023-06-29T18:46:30.315Z,50.32
2023-06-29T18:48:58.354Z,51.49
2023-06-29T18:51:26.357Z,52.97
2023-06-29T18:53:54.403Z,53.72
2023-06-29T18:56:22.512Z,54.30
2023-06-29T18:58:50.783Z,54.55
2023-06-29T19:01:18.736Z,55.33
2023-06-29T19:03:46.496Z,56.20
2023-06-29T19:06:14.248Z,57.32
2023-06-29T19:08:42.138Z,58.03
2023-06-29T19:11:12.673Z,58.70
2023-06-29T19:13:40.644Z,59.63
2023-06-29T19:16:11.161Z,60.28
2023-06-29T19:18:38.913Z,61.60
2023-06-29T19:21:06.709Z,62.13
2023-06-29T19:23:34.469Z,62.89
2023-06-29T19:26:02.147Z,63.43
2023-06-29T19:28:29.949Z,63.65
2023-06-29T19:30:57.818Z,63.93
2023-06-29T19:33:25.622Z,64.60
2023-06-29T19:35:53.456Z,65.31
2023-06-29T19:38:21.517Z,65.50
2023-06-29T19:40:49.221Z,65.96
2023-06-29T19:43:16.983Z,66.61
2023-06-29T19:45:45.034Z,67.11
2023-06-29T19:48:13.051Z,67.22
2023-06-29T19:50:41.908Z,67.61
2023-06-29T19:53:09.574Z,68.39
2023-06-29T19:55:37.317Z,69.31
2023-06-29T19:58:05.203Z,69.73
2023-06-29T20:00:32.965Z,70.09
2023-06-29T20:03:00.847Z,70.57
2023-06-29T20:05:29.023Z,70.84
2023-06-29T20:07:56.880Z,70.81
2023-06-29T20:10:24.721Z,71.06
2023-06-29T20:12:52.513Z,71.29
2023-06-29T20:15:20.309Z,71.49
2023-06-29T20:17:48.137Z,71.49
2023-06-29T20:20:15.860Z,71.67
2023-06-29T20:22:43.707Z,71.94
2023-06-29T20:25:11.311Z,72.08
2023-06-29T20:27:38.932Z,72.75
2023-06-29T20:30:07.324Z,73.12
2023-06-29T20:32:35.082Z,73.11
2023-06-29T20:35:02.762Z,72.96
2023-06-29T20:37:30.414Z,73.07
2023-06-29T20:39:58.051Z,73.19
2023-06-29T20:42:25.684Z,73.43
2023-06-29T20:44:53.749Z,73.93
2023-06-29T20:47:21.653Z,73.94
2023-06-29T20:49:49.229Z,74.15
2023-06-29T20:52:16.837Z,74.60
2023-06-29T20:54:44.463Z,75.05
2023-06-29T20:57:12.126Z,75.35
2023-06-29T20:59:39.888Z,75.63
2023-06-29T21:02:07.777Z,75.87
2023-06-29T21:04:35.516Z,76.01
2023-06-29T21:07:03.298Z,75.99
2023-06-29T21:09:32.419Z,76.18
2023-06-29T21:12:00.207Z,76.04
2023-06-29T21:14:28.054Z,75.95
2023-06-29T21:16:55.969Z,75.89
2023-06-29T21:19:24.638Z,75.98
2023-06-29T21:21:52.676Z,76.26
2023-06-29T21:24:20.601Z,76.41
2023-06-29T21:26:48.383Z,76.59
2023-06-29T21:29:34.122Z,76.66
2023-06-29T21:32:10.822Z,76.94
2023-06-29T21:34:42.555Z,77.34
2023-06-29T21:37:10.906Z,77.37
2023-06-29T21:39:38.553Z,77.49
2023-06-29T21:42:07.012Z,77.61
2023-06-29T21:44:34.880Z,77.62
2023-06-29T21:47:02.552Z,77.87
2023-06-29T21:49:33.533Z,78.16
2023-06-29T21:52:01.166Z,78.44
2023-06-29T21:54:28.792Z,78.51
2023-06-29T21:56:56.480Z,78.40
2023-06-29T21:59:24.129Z,78.48
2023-06-29T22:01:51.786Z,78.70
2023-06-29T22:04:19.444Z,78.75
2023-06-29T22:06:47.661Z,78.63
2023-06-29T22:09:16.198Z,78.94
2023-06-29T22:11:44.250Z,78.98
2023-06-29T22:14:11.946Z,79.01
2023-06-29T22:16:39.561Z,79.10
2023-06-29T22:19:07.296Z,79.37
2023-06-29T22:21:35.036Z,79.62
2023-06-29T22:24:03.300Z,79.99
2023-06-29T22:26:30.951Z,79.99
2023-06-29T22:28:58.570Z,80.18
2023-06-29T22:31:26.358Z,80.23
2023-06-29T22:33:54.356Z,80.27
2023-06-29T22:36:22.175Z,80.30
2023-06-29T22:38:49.775Z,80.40
2023-06-29T22:41:17.439Z,80.90
2023-06-29T22:43:45.076Z,80.90
2023-06-29T22:46:12.798Z,81.11
2023-06-29T22:48:40.448Z,81.19
2023-06-29T22:51:08.173Z,81.37
2023-06-29T22:53:35.848Z,81.29
2023-06-29T22:56:03.775Z,81.19
2023-06-29T22:58:31.438Z,80.90
2023-06-29T23:00:58.994Z,80.89
2023-06-29T23:03:26.899Z,81.08
2023-06-29T23:05:54.606Z,81.15
2023-06-29T23:08:22.209Z,81.11
2023-06-29T23:10:49.801Z,81.47
2023-06-29T23:13:17.738Z,81.44
2023-06-29T23:15:46.679Z,81.22
2023-06-29T23:18:14.733Z,80.99
2023-06-29T23:20:42.420Z,80.71
2023-06-29T23:23:12.781Z,80.71
2023-06-29T23:25:42.132Z,81.04
2023-06-29T23:28:09.859Z,81.09
2023-06-29T23:30:37.518Z,81.13
2023-06-29T23:33:05.376Z,81.47
2023-06-29T23:35:33.039Z,81.60
2023-06-29T23:38:00.626Z,81.88
2023-06-29T23:40:28.209Z,81.86
2023-06-29T23:42:55.804Z,82.04
2023-06-29T23:45:24.094Z,82.08
2023-06-29T23:47:51.865Z,81.92
2023-06-29T23:50:19.808Z,82.11
2023-06-29T23:52:47.467Z,81.88
2023-06-29T23:55:15.092Z,81.96
2023-06-29T23:57:42.838Z,81.85
